Terminal Aerodrome Forecast
Issued by NWS Binghamton, NY

Home | Current Version | Previous Version | Text Only | Print | Product List | Glossary On
Versions: 1 2 3 4 5 6 7 8 9 10 11 12 13 14 15 16
000
FTUS41 KBGM 301120
TAFSYR
TAF
KSYR 301120Z 3012/3112 VRB03KT P6SM OVC200
     FM301800 35006KT P6SM BKN100 OVC200
     FM310200 10004KT P6SM BKN050 OVC100 PROB30 3107/3112 3SM -TSRA
      BR BKN040CB OVC080=

USA.gov is the U.S. government's official web portal to all federal, state and local government web resources and services.